sensor_id;sensor_type;location;lat;lon;timestamp;P1;durP1;ratioP1;P2;durP2;ratioP2
25948;SDS011;13961;51.178;4.448;2023-08-08T00:01:26;7.88;;;2.10;;
25948;SDS011;13961;51.178;4.448;2023-08-08T00:03:51;8.48;;;2.60;;
25948;SDS011;13961;51.178;4.448;2023-08-08T00:06:17;10.10;;;2.78;;
25948;SDS011;13961;51.178;4.448;2023-08-08T00:08:42;7.80;;;2.30;;
25948;SDS011;13961;51.178;4.448;2023-08-08T00:11:08;8.07;;;2.65;;
25948;SDS011;13961;51.178;4.448;2023-08-08T00:13:34;7.85;;;2.90;;
25948;SDS011;13961;51.178;4.448;2023-08-08T00:15:59;4.88;;;2.33;;
25948;SDS011;13961;51.178;4.448;2023-08-08T00:18:25;6.22;;;2.50;;
25948;SDS011;13961;51.178;4.448;2023-08-08T00:20:51;8.80;;;2.88;;
25948;SDS011;13961;51.178;4.448;2023-08-08T00:23:17;9.50;;;3.03;;
25948;SDS011;13961;51.178;4.448;2023-08-08T00:25:43;6.72;;;2.65;;
25948;SDS011;13961;51.178;4.448;2023-08-08T00:28:14;6.93;;;2.30;;
25948;SDS011;13961;51.178;4.448;2023-08-08T00:30:41;5.72;;;2.80;;
25948;SDS011;13961;51.178;4.448;2023-08-08T00:33:06;8.55;;;3.00;;
25948;SDS011;13961;51.178;4.448;2023-08-08T00:35:32;6.78;;;2.50;;
25948;SDS011;13961;51.178;4.448;2023-08-08T00:37:57;6.00;;;2.72;;
25948;SDS011;13961;51.178;4.448;2023-08-08T00:40:23;9.05;;;2.85;;
25948;SDS011;13961;51.178;4.448;2023-08-08T00:42:49;6.57;;;2.35;;
25948;SDS011;13961;51.178;4.448;2023-08-08T00:45:14;5.90;;;2.78;;
25948;SDS011;13961;51.178;4.448;2023-08-08T00:47:40;5.88;;;2.67;;
25948;SDS011;13961;51.178;4.448;2023-08-08T00:50:06;7.15;;;2.58;;
25948;SDS011;13961;51.178;4.448;2023-08-08T00:52:33;9.05;;;3.05;;
25948;SDS011;13961;51.178;4.448;2023-08-08T00:55:01;9.48;;;3.00;;
25948;SDS011;13961;51.178;4.448;2023-08-08T00:57:26;10.57;;;3.30;;
25948;SDS011;13961;51.178;4.448;2023-08-08T00:59:52;6.88;;;3.05;;
25948;SDS011;13961;51.178;4.448;2023-08-08T01:02:19;13.48;;;3.55;;
25948;SDS011;13961;51.178;4.448;2023-08-08T01:04:45;7.72;;;3.15;;
25948;SDS011;13961;51.178;4.448;2023-08-08T01:10:07;8.35;;;3.03;;
25948;SDS011;13961;51.178;4.448;2023-08-08T01:12:48;9.30;;;3.20;;
25948;SDS011;13961;51.178;4.448;2023-08-08T01:15:16;9.05;;;3.40;;
25948;SDS011;13961;51.178;4.448;2023-08-08T01:17:43;11.80;;;3.35;;
25948;SDS011;13961;51.178;4.448;2023-08-08T01:20:11;5.90;;;3.08;;
25948;SDS011;13961;51.178;4.448;2023-08-08T01:25:38;8.43;;;3.17;;
25948;SDS011;13961;51.178;4.448;2023-08-08T01:28:05;10.45;;;3.45;;
25948;SDS011;13961;51.178;4.448;2023-08-08T01:30:32;10.32;;;3.55;;
25948;SDS011;13961;51.178;4.448;2023-08-08T01:32:58;11.60;;;3.20;;
25948;SDS011;13961;51.178;4.448;2023-08-08T01:35:24;11.10;;;3.72;;
25948;SDS011;13961;51.178;4.448;2023-08-08T01:37:54;12.30;;;3.42;;
25948;SDS011;13961;51.178;4.448;2023-08-08T01:40:29;10.55;;;3.22;;
25948;SDS011;13961;51.178;4.448;2023-08-08T01:42:56;13.43;;;3.53;;
25948;SDS011;13961;51.178;4.448;2023-08-08T01:45:22;11.55;;;3.50;;
25948;SDS011;13961;51.178;4.448;2023-08-08T01:47:50;10.65;;;3.60;;
25948;SDS011;13961;51.178;4.448;2023-08-08T01:50:16;11.57;;;3.22;;
25948;SDS011;13961;51.178;4.448;2023-08-08T01:52:42;8.75;;;3.88;;
25948;SDS011;13961;51.178;4.448;2023-08-08T01:55:08;11.77;;;3.65;;
25948;SDS011;13961;51.178;4.448;2023-08-08T01:57:34;9.98;;;3.55;;
25948;SDS011;13961;51.178;4.448;2023-08-08T02:00:00;9.60;;;3.22;;
25948;SDS011;13961;51.178;4.448;2023-08-08T02:02:26;10.88;;;3.72;;
25948;SDS011;13961;51.178;4.448;2023-08-08T02:04:52;8.63;;;3.90;;
25948;SDS011;13961;51.178;4.448;2023-08-08T02:07:18;16.40;;;4.03;;
25948;SDS011;13961;51.178;4.448;2023-08-08T02:09:43;16.75;;;4.55;;
25948;SDS011;13961;51.178;4.448;2023-08-08T02:12:12;14.85;;;4.10;;
25948;SDS011;13961;51.178;4.448;2023-08-08T02:14:37;13.55;;;4.28;;
25948;SDS011;13961;51.178;4.448;2023-08-08T02:17:03;15.20;;;4.00;;
25948;SDS011;13961;51.178;4.448;2023-08-08T02:19:29;16.52;;;4.57;;
25948;SDS011;13961;51.178;4.448;2023-08-08T02:21:56;12.18;;;3.80;;
25948;SDS011;13961;51.178;4.448;2023-08-08T02:24:23;9.18;;;3.55;;
25948;SDS011;13961;51.178;4.448;2023-08-08T02:26:49;13.13;;;3.35;;
25948;SDS011;13961;51.178;4.448;2023-08-08T02:29:15;12.75;;;3.55;;
25948;SDS011;13961;51.178;4.448;2023-08-08T02:31:41;15.55;;;4.07;;
25948;SDS011;13961;51.178;4.448;2023-08-08T02:34:06;9.93;;;3.45;;
25948;SDS011;13961;51.178;4.448;2023-08-08T02:36:32;17.55;;;4.15;;
25948;SDS011;13961;51.178;4.448;2023-08-08T02:38:58;11.55;;;4.40;;
25948;SDS011;13961;51.178;4.448;2023-08-08T02:41:24;12.35;;;3.75;;
25948;SDS011;13961;51.178;4.448;2023-08-08T02:43:50;14.40;;;4.20;;
25948;SDS011;13961;51.178;4.448;2023-08-08T02:46:15;14.57;;;4.32;;
25948;SDS011;13961;51.178;4.448;2023-08-08T02:48:41;9.27;;;3.90;;
25948;SDS011;13961;51.178;4.448;2023-08-08T02:51:07;12.00;;;4.32;;
25948;SDS011;13961;51.178;4.448;2023-08-08T02:53:32;11.40;;;4.63;;
25948;SDS011;13961;51.178;4.448;2023-08-08T02:55:58;14.32;;;4.38;;
25948;SDS011;13961;51.178;4.448;2023-08-08T02:58:23;16.55;;;5.38;;
25948;SDS011;13961;51.178;4.448;2023-08-08T03:00:50;13.82;;;4.47;;
25948;SDS011;13961;51.178;4.448;2023-08-08T03:03:17;12.13;;;4.03;;
25948;SDS011;13961;51.178;4.448;2023-08-08T03:05:43;14.52;;;4.35;;
25948;SDS011;13961;51.178;4.448;2023-08-08T03:08:10;12.80;;;4.50;;
25948;SDS011;13961;51.178;4.448;2023-08-08T03:10:38;17.45;;;4.38;;
25948;SDS011;13961;51.178;4.448;2023-08-08T03:13:03;12.65;;;4.65;;
25948;SDS011;13961;51.178;4.448;2023-08-08T03:15:29;12.63;;;4.78;;
25948;SDS011;13961;51.178;4.448;2023-08-08T03:17:55;14.88;;;4.65;;
25948;SDS011;13961;51.178;4.448;2023-08-08T03:20:21;17.45;;;4.75;;
25948;SDS011;13961;51.178;4.448;2023-08-08T03:22:47;15.10;;;4.55;;
25948;SDS011;13961;51.178;4.448;2023-08-08T03:25:13;15.95;;;5.00;;
25948;SDS011;13961;51.178;4.448;2023-08-08T03:27:38;11.57;;;4.43;;
25948;SDS011;13961;51.178;4.448;2023-08-08T03:30:04;15.35;;;4.82;;
25948;SDS011;13961;51.178;4.448;2023-08-08T03:32:31;14.07;;;4.82;;
25948;SDS011;13961;51.178;4.448;2023-08-08T03:34:56;20.77;;;4.85;;
25948;SDS011;13961;51.178;4.448;2023-08-08T03:37:22;18.10;;;5.05;;
25948;SDS011;13961;51.178;4.448;2023-08-08T03:39:48;14.25;;;5.32;;
25948;SDS011;13961;51.178;4.448;2023-08-08T03:42:13;12.30;;;4.38;;
25948;SDS011;13961;51.178;4.448;2023-08-08T03:44:40;14.20;;;4.55;;
25948;SDS011;13961;51.178;4.448;2023-08-08T03:47:06;16.02;;;4.97;;
25948;SDS011;13961;51.178;4.448;2023-08-08T03:49:32;14.18;;;4.70;;
25948;SDS011;13961;51.178;4.448;2023-08-08T03:51:58;15.45;;;5.00;;
25948;SDS011;13961;51.178;4.448;2023-08-08T03:54:24;14.18;;;4.85;;
25948;SDS011;13961;51.178;4.448;2023-08-08T03:56:51;18.33;;;5.28;;
25948;SDS011;13961;51.178;4.448;2023-08-08T03:59:17;15.95;;;5.28;;
25948;SDS011;13961;51.178;4.448;2023-08-08T04:01:43;15.40;;;4.50;;
25948;SDS011;13961;51.178;4.448;2023-08-08T04:04:08;12.80;;;4.53;;
25948;SDS011;13961;51.178;4.448;2023-08-08T04:06:34;17.33;;;5.30;;
25948;SDS011;13961;51.178;4.448;2023-08-08T04:09:00;15.68;;;5.25;;
25948;SDS011;13961;51.178;4.448;2023-08-08T04:11:26;13.93;;;4.63;;
25948;SDS011;13961;51.178;4.448;2023-08-08T04:13:51;15.57;;;5.05;;
25948;SDS011;13961;51.178;4.448;2023-08-08T04:16:17;17.75;;;5.20;;
25948;SDS011;13961;51.178;4.448;2023-08-08T04:18:43;13.65;;;5.10;;
25948;SDS011;13961;51.178;4.448;2023-08-08T04:21:08;19.83;;;5.20;;
25948;SDS011;13961;51.178;4.448;2023-08-08T04:23:34;13.82;;;4.82;;
25948;SDS011;13961;51.178;4.448;2023-08-08T04:26:00;16.45;;;5.30;;
25948;SDS011;13961;51.178;4.448;2023-08-08T04:28:26;17.55;;;5.07;;
25948;SDS011;13961;51.178;4.448;2023-08-08T04:30:51;15.85;;;5.38;;
25948;SDS011;13961;51.178;4.448;2023-08-08T04:33:17;20.92;;;5.20;;
25948;SDS011;13961;51.178;4.448;2023-08-08T04:35:43;14.98;;;5.25;;
25948;SDS011;13961;51.178;4.448;2023-08-08T04:38:08;19.88;;;5.82;;
25948;SDS011;13961;51.178;4.448;2023-08-08T04:40:34;15.98;;;5.65;;
25948;SDS011;13961;51.178;4.448;2023-08-08T04:43:00;16.88;;;5.45;;
25948;SDS011;13961;51.178;4.448;2023-08-08T04:45:26;13.30;;;5.00;;
25948;SDS011;13961;51.178;4.448;2023-08-08T04:47:54;16.13;;;5.80;;
25948;SDS011;13961;51.178;4.448;2023-08-08T04:50:20;19.73;;;5.15;;
25948;SDS011;13961;51.178;4.448;2023-08-08T04:52:45;15.18;;;5.05;;
25948;SDS011;13961;51.178;4.448;2023-08-08T04:55:11;14.85;;;4.95;;
25948;SDS011;13961;51.178;4.448;2023-08-08T04:57:37;14.10;;;5.10;;
25948;SDS011;13961;51.178;4.448;2023-08-08T05:00:03;16.63;;;5.18;;
25948;SDS011;13961;51.178;4.448;2023-08-08T05:02:31;14.45;;;4.70;;
25948;SDS011;13961;51.178;4.448;2023-08-08T05:04:57;16.73;;;5.10;;
25948;SDS011;13961;51.178;4.448;2023-08-08T05:07:23;14.95;;;4.90;;
25948;SDS011;13961;51.178;4.448;2023-08-08T05:09:48;14.65;;;4.88;;
25948;SDS011;13961;51.178;4.448;2023-08-08T05:12:14;17.08;;;5.47;;
25948;SDS011;13961;51.178;4.448;2023-08-08T05:14:40;11.40;;;5.05;;
25948;SDS011;13961;51.178;4.448;2023-08-08T05:17:05;17.27;;;6.00;;
25948;SDS011;13961;51.178;4.448;2023-08-08T05:19:31;18.55;;;5.43;;
25948;SDS011;13961;51.178;4.448;2023-08-08T05:21:57;12.95;;;4.70;;
25948;SDS011;13961;51.178;4.448;2023-08-08T05:24:24;12.95;;;4.80;;
25948;SDS011;13961;51.178;4.448;2023-08-08T05:26:49;18.45;;;5.07;;
25948;SDS011;13961;51.178;4.448;2023-08-08T05:29:15;11.73;;;4.70;;
25948;SDS011;13961;51.178;4.448;2023-08-08T05:31:41;15.40;;;4.97;;
25948;SDS011;13961;51.178;4.448;2023-08-08T05:34:06;15.77;;;5.22;;
25948;SDS011;13961;51.178;4.448;2023-08-08T05:36:32;19.05;;;5.78;;
25948;SDS011;13961;51.178;4.448;2023-08-08T05:38:58;13.30;;;4.70;;
25948;SDS011;13961;51.178;4.448;2023-08-08T05:41:24;15.93;;;4.80;;
25948;SDS011;13961;51.178;4.448;2023-08-08T05:43:50;18.13;;;5.38;;
25948;SDS011;13961;51.178;4.448;2023-08-08T05:46:16;14.82;;;4.68;;
25948;SDS011;13961;51.178;4.448;2023-08-08T05:48:41;10.85;;;4.68;;
25948;SDS011;13961;51.178;4.448;2023-08-08T05:51:07;15.43;;;4.90;;
25948;SDS011;13961;51.178;4.448;2023-08-08T05:53:33;20.02;;;5.10;;
25948;SDS011;13961;51.178;4.448;2023-08-08T05:55:58;17.38;;;4.88;;
25948;SDS011;13961;51.178;4.448;2023-08-08T05:58:24;13.80;;;4.65;;
25948;SDS011;13961;51.178;4.448;2023-08-08T06:00:50;14.10;;;4.97;;
25948;SDS011;13961;51.178;4.448;2023-08-08T06:03:16;15.52;;;4.60;;
25948;SDS011;13961;51.178;4.448;2023-08-08T06:05:41;13.40;;;4.90;;
25948;SDS011;13961;51.178;4.448;2023-08-08T06:08:07;17.10;;;5.07;;
25948;SDS011;13961;51.178;4.448;2023-08-08T06:10:36;12.85;;;5.03;;
25948;SDS011;13961;51.178;4.448;2023-08-08T06:13:02;14.52;;;5.20;;
25948;SDS011;13961;51.178;4.448;2023-08-08T06:15:28;14.00;;;4.78;;
25948;SDS011;13961;51.178;4.448;2023-08-08T06:17:54;16.80;;;4.60;;
25948;SDS011;13961;51.178;4.448;2023-08-08T06:20:19;15.95;;;4.88;;
25948;SDS011;13961;51.178;4.448;2023-08-08T06:22:45;13.40;;;4.30;;
25948;SDS011;13961;51.178;4.448;2023-08-08T06:25:12;13.85;;;3.97;;
25948;SDS011;13961;51.178;4.448;2023-08-08T06:27:39;15.25;;;4.53;;
25948;SDS011;13961;51.178;4.448;2023-08-08T06:30:05;11.63;;;4.40;;
25948;SDS011;13961;51.178;4.448;2023-08-08T06:32:31;11.77;;;3.67;;
25948;SDS011;13961;51.178;4.448;2023-08-08T06:34:56;15.52;;;4.38;;
25948;SDS011;13961;51.178;4.448;2023-08-08T06:37:22;12.80;;;3.65;;
25948;SDS011;13961;51.178;4.448;2023-08-08T06:39:49;10.70;;;3.95;;
25948;SDS011;13961;51.178;4.448;2023-08-08T06:42:15;15.45;;;3.97;;
25948;SDS011;13961;51.178;4.448;2023-08-08T06:44:41;12.02;;;3.33;;
25948;SDS011;13961;51.178;4.448;2023-08-08T06:47:08;12.57;;;3.00;;
25948;SDS011;13961;51.178;4.448;2023-08-08T06:49:35;9.75;;;3.45;;
25948;SDS011;13961;51.178;4.448;2023-08-08T06:52:02;15.18;;;3.20;;
25948;SDS011;13961;51.178;4.448;2023-08-08T06:54:28;8.07;;;3.10;;
25948;SDS011;13961;51.178;4.448;2023-08-08T06:56:54;6.55;;;3.40;;
25948;SDS011;13961;51.178;4.448;2023-08-08T06:59:23;15.73;;;4.32;;
25948;SDS011;13961;51.178;4.448;2023-08-08T07:01:49;12.88;;;3.90;;
25948;SDS011;13961;51.178;4.448;2023-08-08T07:04:16;11.73;;;3.90;;
25948;SDS011;13961;51.178;4.448;2023-08-08T07:06:43;11.98;;;3.40;;
25948;SDS011;13961;51.178;4.448;2023-08-08T07:09:12;9.95;;;3.03;;
25948;SDS011;13961;51.178;4.448;2023-08-08T07:11:39;12.23;;;3.42;;
25948;SDS011;13961;51.178;4.448;2023-08-08T07:14:05;10.45;;;3.40;;
25948;SDS011;13961;51.178;4.448;2023-08-08T07:16:33;11.32;;;3.40;;
25948;SDS011;13961;51.178;4.448;2023-08-08T07:18:59;14.93;;;3.45;;
25948;SDS011;13961;51.178;4.448;2023-08-08T07:21:25;15.77;;;3.00;;
25948;SDS011;13961;51.178;4.448;2023-08-08T07:23:52;10.40;;;3.33;;
25948;SDS011;13961;51.178;4.448;2023-08-08T07:26:19;11.68;;;3.20;;
25948;SDS011;13961;51.178;4.448;2023-08-08T07:28:45;8.50;;;3.22;;
25948;SDS011;13961;51.178;4.448;2023-08-08T07:31:12;13.00;;;3.30;;
25948;SDS011;13961;51.178;4.448;2023-08-08T07:33:40;9.88;;;3.38;;
25948;SDS011;13961;51.178;4.448;2023-08-08T07:36:06;11.48;;;3.50;;
25948;SDS011;13961;51.178;4.448;2023-08-08T07:38:32;7.97;;;3.10;;
25948;SDS011;13961;51.178;4.448;2023-08-08T07:40:58;14.77;;;3.70;;
25948;SDS011;13961;51.178;4.448;2023-08-08T07:43:25;11.82;;;3.75;;
25948;SDS011;13961;51.178;4.448;2023-08-08T07:45:50;13.90;;;3.78;;
25948;SDS011;13961;51.178;4.448;2023-08-08T07:48:16;16.80;;;3.50;;
25948;SDS011;13961;51.178;4.448;2023-08-08T07:50:42;16.67;;;3.70;;
25948;SDS011;13961;51.178;4.448;2023-08-08T07:53:07;7.15;;;3.50;;
25948;SDS011;13961;51.178;4.448;2023-08-08T07:55:34;13.82;;;3.67;;
25948;SDS011;13961;51.178;4.448;2023-08-08T07:57:59;12.32;;;3.38;;
25948;SDS011;13961;51.178;4.448;2023-08-08T08:00:25;8.88;;;3.50;;
25948;SDS011;13961;51.178;4.448;2023-08-08T08:02:51;15.15;;;3.55;;
25948;SDS011;13961;51.178;4.448;2023-08-08T08:05:17;12.15;;;3.83;;
25948;SDS011;13961;51.178;4.448;2023-08-08T08:07:43;8.85;;;3.30;;
25948;SDS011;13961;51.178;4.448;2023-08-08T08:10:09;12.95;;;4.05;;
25948;SDS011;13961;51.178;4.448;2023-08-08T08:12:38;11.52;;;3.58;;
25948;SDS011;13961;51.178;4.448;2023-08-08T08:15:06;14.00;;;3.95;;
25948;SDS011;13961;51.178;4.448;2023-08-08T08:17:33;11.20;;;3.38;;
25948;SDS011;13961;51.178;4.448;2023-08-08T08:19:59;10.85;;;3.75;;
25948;SDS011;13961;51.178;4.448;2023-08-08T08:22:25;10.05;;;3.65;;
25948;SDS011;13961;51.178;4.448;2023-08-08T08:24:50;12.57;;;3.75;;
25948;SDS011;13961;51.178;4.448;2023-08-08T08:27:17;8.88;;;3.72;;
25948;SDS011;13961;51.178;4.448;2023-08-08T08:29:43;10.40;;;3.78;;
25948;SDS011;13961;51.178;4.448;2023-08-08T08:32:08;13.30;;;3.28;;
25948;SDS011;13961;51.178;4.448;2023-08-08T08:34:34;11.15;;;3.92;;
25948;SDS011;13961;51.178;4.448;2023-08-08T08:37:00;8.05;;;3.50;;
25948;SDS011;13961;51.178;4.448;2023-08-08T08:39:26;9.38;;;3.72;;
25948;SDS011;13961;51.178;4.448;2023-08-08T08:41:53;9.60;;;3.50;;
25948;SDS011;13961;51.178;4.448;2023-08-08T08:44:23;9.55;;;3.20;;
25948;SDS011;13961;51.178;4.448;2023-08-08T08:46:51;9.00;;;3.20;;
25948;SDS011;13961;51.178;4.448;2023-08-08T08:49:18;11.73;;;3.50;;
25948;SDS011;13961;51.178;4.448;2023-08-08T08:51:47;9.48;;;3.20;;
25948;SDS011;13961;51.178;4.448;2023-08-08T08:54:12;13.15;;;3.55;;
25948;SDS011;13961;51.178;4.448;2023-08-08T08:56:40;9.35;;;3.15;;
25948;SDS011;13961;51.178;4.448;2023-08-08T08:59:06;12.68;;;3.22;;
25948;SDS011;13961;51.178;4.448;2023-08-08T09:01:32;11.82;;;2.80;;
25948;SDS011;13961;51.178;4.448;2023-08-08T09:03:58;9.30;;;3.33;;
25948;SDS011;13961;51.178;4.448;2023-08-08T09:06:27;6.80;;;3.13;;
25948;SDS011;13961;51.178;4.448;2023-08-08T09:08:54;7.78;;;3.05;;
25948;SDS011;13961;51.178;4.448;2023-08-08T09:11:19;7.97;;;3.10;;
25948;SDS011;13961;51.178;4.448;2023-08-08T09:13:45;7.40;;;2.70;;
25948;SDS011;13961;51.178;4.448;2023-08-08T09:16:11;10.88;;;3.22;;
25948;SDS011;13961;51.178;4.448;2023-08-08T09:18:37;7.60;;;2.97;;
25948;SDS011;13961;51.178;4.448;2023-08-08T09:21:04;8.77;;;3.00;;
25948;SDS011;13961;51.178;4.448;2023-08-08T09:23:30;5.38;;;2.97;;
25948;SDS011;13961;51.178;4.448;2023-08-08T09:25:56;8.05;;;3.38;;
25948;SDS011;13961;51.178;4.448;2023-08-08T09:28:22;8.18;;;3.22;;
25948;SDS011;13961;51.178;4.448;2023-08-08T09:30:48;5.50;;;2.88;;
25948;SDS011;13961;51.178;4.448;2023-08-08T09:33:14;5.30;;;2.90;;
25948;SDS011;13961;51.178;4.448;2023-08-08T09:35:40;5.10;;;2.70;;
25948;SDS011;13961;51.178;4.448;2023-08-08T09:38:07;6.05;;;2.58;;
25948;SDS011;13961;51.178;4.448;2023-08-08T09:40:32;11.15;;;2.70;;
25948;SDS011;13961;51.178;4.448;2023-08-08T09:42:59;6.95;;;2.53;;
25948;SDS011;13961;51.178;4.448;2023-08-08T09:45:25;7.03;;;2.80;;
25948;SDS011;13961;51.178;4.448;2023-08-08T09:47:51;7.75;;;2.47;;
25948;SDS011;13961;51.178;4.448;2023-08-08T09:50:19;9.95;;;2.65;;
25948;SDS011;13961;51.178;4.448;2023-08-08T09:52:46;7.50;;;2.65;;
25948;SDS011;13961;51.178;4.448;2023-08-08T09:55:12;4.95;;;2.38;;
25948;SDS011;13961;51.178;4.448;2023-08-08T09:57:39;6.97;;;2.13;;
25948;SDS011;13961;51.178;4.448;2023-08-08T10:00:05;7.03;;;2.05;;
25948;SDS011;13961;51.178;4.448;2023-08-08T10:02:42;6.10;;;1.92;;
25948;SDS011;13961;51.178;4.448;2023-08-08T10:05:11;3.67;;;1.73;;
25948;SDS011;13961;51.178;4.448;2023-08-08T10:07:39;5.20;;;1.95;;
25948;SDS011;13961;51.178;4.448;2023-08-08T10:10:06;5.97;;;2.03;;
25948;SDS011;13961;51.178;4.448;2023-08-08T10:12:35;3.30;;;1.75;;
25948;SDS011;13961;51.178;4.448;2023-08-08T10:15:08;4.38;;;1.95;;
25948;SDS011;13961;51.178;4.448;2023-08-08T10:17:38;3.97;;;2.20;;
25948;SDS011;13961;51.178;4.448;2023-08-08T10:20:07;3.83;;;2.03;;
25948;SDS011;13961;51.178;4.448;2023-08-08T10:22:36;4.15;;;2.00;;
25948;SDS011;13961;51.178;4.448;2023-08-08T10:25:06;7.30;;;1.75;;
25948;SDS011;13961;51.178;4.448;2023-08-08T10:27:33;2.97;;;1.75;;
25948;SDS011;13961;51.178;4.448;2023-08-08T10:30:03;5.45;;;2.00;;
25948;SDS011;13961;51.178;4.448;2023-08-08T10:32:38;2.45;;;1.38;;
25948;SDS011;13961;51.178;4.448;2023-08-08T10:35:09;4.20;;;1.70;;
25948;SDS011;13961;51.178;4.448;2023-08-08T10:37:36;3.35;;;1.35;;
25948;SDS011;13961;51.178;4.448;2023-08-08T10:40:03;1.48;;;1.20;;
25948;SDS011;13961;51.178;4.448;2023-08-08T10:42:31;6.82;;;1.70;;
25948;SDS011;13961;51.178;4.448;2023-08-08T10:44:58;1.83;;;1.25;;
25948;SDS011;13961;51.178;4.448;2023-08-08T10:47:25;5.50;;;1.45;;
25948;SDS011;13961;51.178;4.448;2023-08-08T10:50:15;3.05;;;1.42;;
25948;SDS011;13961;51.178;4.448;2023-08-08T10:55:23;3.47;;;1.45;;
25948;SDS011;13961;51.178;4.448;2023-08-08T11:00:24;3.25;;;1.50;;
25948;SDS011;13961;51.178;4.448;2023-08-08T11:02:53;3.83;;;1.60;;
25948;SDS011;13961;51.178;4.448;2023-08-08T11:05:20;2.33;;;1.63;;
25948;SDS011;13961;51.178;4.448;2023-08-08T11:07:47;3.08;;;1.40;;
25948;SDS011;13961;51.178;4.448;2023-08-08T11:10:13;6.30;;;2.45;;
25948;SDS011;13961;51.178;4.448;2023-08-08T11:12:39;3.22;;;1.50;;
25948;SDS011;13961;51.178;4.448;2023-08-08T11:15:05;2.67;;;1.60;;
25948;SDS011;13961;51.178;4.448;2023-08-08T11:17:31;4.28;;;1.73;;
25948;SDS011;13961;51.178;4.448;2023-08-08T11:19:57;3.30;;;1.80;;
25948;SDS011;13961;51.178;4.448;2023-08-08T11:22:23;5.93;;;1.77;;
25948;SDS011;13961;51.178;4.448;2023-08-08T11:24:50;4.88;;;1.60;;
25948;SDS011;13961;51.178;4.448;2023-08-08T11:27:16;4.28;;;1.73;;
25948;SDS011;13961;51.178;4.448;2023-08-08T11:29:50;3.80;;;1.95;;
25948;SDS011;13961;51.178;4.448;2023-08-08T11:32:16;7.15;;;1.83;;
25948;SDS011;13961;51.178;4.448;2023-08-08T11:34:42;5.30;;;1.90;;
25948;SDS011;13961;51.178;4.448;2023-08-08T11:37:09;4.57;;;1.65;;
25948;SDS011;13961;51.178;4.448;2023-08-08T11:39:36;5.03;;;1.88;;
25948;SDS011;13961;51.178;4.448;2023-08-08T11:42:02;4.03;;;1.88;;
25948;SDS011;13961;51.178;4.448;2023-08-08T11:44:29;4.97;;;1.73;;
25948;SDS011;13961;51.178;4.448;2023-08-08T11:46:55;4.13;;;1.88;;
25948;SDS011;13961;51.178;4.448;2023-08-08T11:49:25;3.25;;;1.80;;
25948;SDS011;13961;51.178;4.448;2023-08-08T11:51:51;4.35;;;2.25;;
25948;SDS011;13961;51.178;4.448;2023-08-08T11:54:26;6.80;;;2.47;;
25948;SDS011;13961;51.178;4.448;2023-08-08T11:56:52;4.15;;;2.28;;
25948;SDS011;13961;51.178;4.448;2023-08-08T11:59:19;3.65;;;2.15;;
25948;SDS011;13961;51.178;4.448;2023-08-08T12:01:45;5.25;;;2.30;;
25948;SDS011;13961;51.178;4.448;2023-08-08T12:04:10;4.32;;;2.28;;
25948;SDS011;13961;51.178;4.448;2023-08-08T12:06:36;7.15;;;2.45;;
25948;SDS011;13961;51.178;4.448;2023-08-08T12:09:07;5.68;;;2.50;;
25948;SDS011;13961;51.178;4.448;2023-08-08T12:11:37;5.90;;;2.55;;
25948;SDS011;13961;51.178;4.448;2023-08-08T12:14:03;7.38;;;3.35;;
25948;SDS011;13961;51.178;4.448;2023-08-08T12:16:29;4.93;;;2.92;;
25948;SDS011;13961;51.178;4.448;2023-08-08T12:18:55;4.22;;;2.53;;
25948;SDS011;13961;51.178;4.448;2023-08-08T12:21:22;6.85;;;3.55;;
25948;SDS011;13961;51.178;4.448;2023-08-08T12:23:48;5.82;;;3.20;;
25948;SDS011;13961;51.178;4.448;2023-08-08T12:26:13;6.63;;;3.30;;
25948;SDS011;13961;51.178;4.448;2023-08-08T12:28:39;5.57;;;3.22;;
25948;SDS011;13961;51.178;4.448;2023-08-08T12:31:05;4.43;;;2.80;;
25948;SDS011;13961;51.178;4.448;2023-08-08T12:33:30;3.70;;;2.70;;
25948;SDS011;13961;51.178;4.448;2023-08-08T12:35:56;4.93;;;2.60;;
25948;SDS011;13961;51.178;4.448;2023-08-08T12:38:22;3.53;;;2.50;;
25948;SDS011;13961;51.178;4.448;2023-08-08T12:40:48;3.40;;;2.53;;
25948;SDS011;13961;51.178;4.448;2023-08-08T12:43:13;4.35;;;2.40;;
25948;SDS011;13961;51.178;4.448;2023-08-08T12:45:42;4.18;;;2.28;;
25948;SDS011;13961;51.178;4.448;2023-08-08T12:48:11;3.50;;;2.28;;
25948;SDS011;13961;51.178;4.448;2023-08-08T12:50:37;7.18;;;2.85;;
25948;SDS011;13961;51.178;4.448;2023-08-08T12:53:03;3.63;;;2.40;;
25948;SDS011;13961;51.178;4.448;2023-08-08T12:55:30;3.30;;;2.80;;
25948;SDS011;13961;51.178;4.448;2023-08-08T12:57:56;4.05;;;2.78;;
25948;SDS011;13961;51.178;4.448;2023-08-08T13:00:23;4.20;;;2.33;;
25948;SDS011;13961;51.178;4.448;2023-08-08T13:02:49;6.80;;;3.15;;
25948;SDS011;13961;51.178;4.448;2023-08-08T13:05:14;4.05;;;2.60;;
25948;SDS011;13961;51.178;4.448;2023-08-08T13:07:40;4.28;;;2.40;;
25948;SDS011;13961;51.178;4.448;2023-08-08T13:10:06;3.90;;;2.90;;
25948;SDS011;13961;51.178;4.448;2023-08-08T13:12:33;4.68;;;2.40;;
25948;SDS011;13961;51.178;4.448;2023-08-08T13:14:59;7.47;;;2.67;;
25948;SDS011;13961;51.178;4.448;2023-08-08T13:17:24;2.58;;;2.30;;
25948;SDS011;13961;51.178;4.448;2023-08-08T13:19:50;4.07;;;2.40;;
25948;SDS011;13961;51.178;4.448;2023-08-08T13:22:16;5.07;;;2.88;;
25948;SDS011;13961;51.178;4.448;2023-08-08T13:24:41;5.43;;;2.90;;
25948;SDS011;13961;51.178;4.448;2023-08-08T13:27:09;4.03;;;2.90;;
25948;SDS011;13961;51.178;4.448;2023-08-08T13:29:35;3.25;;;2.33;;
25948;SDS011;13961;51.178;4.448;2023-08-08T13:32:01;5.40;;;2.45;;
25948;SDS011;13961;51.178;4.448;2023-08-08T13:34:26;3.33;;;2.25;;
25948;SDS011;13961;51.178;4.448;2023-08-08T13:36:52;3.45;;;1.60;;
25948;SDS011;13961;51.178;4.448;2023-08-08T13:39:18;1.83;;;1.48;;
25948;SDS011;13961;51.178;4.448;2023-08-08T13:41:44;1.73;;;1.38;;
25948;SDS011;13961;51.178;4.448;2023-08-08T13:44:10;2.65;;;1.50;;
25948;SDS011;13961;51.178;4.448;2023-08-08T13:46:36;3.17;;;1.50;;
25948;SDS011;13961;51.178;4.448;2023-08-08T13:49:01;2.70;;;1.55;;
25948;SDS011;13961;51.178;4.448;2023-08-08T13:51:27;4.40;;;1.50;;
25948;SDS011;13961;51.178;4.448;2023-08-08T13:53:53;2.17;;;1.40;;
25948;SDS011;13961;51.178;4.448;2023-08-08T13:56:19;3.50;;;1.23;;
25948;SDS011;13961;51.178;4.448;2023-08-08T13:58:45;2.58;;;1.45;;
25948;SDS011;13961;51.178;4.448;2023-08-08T14:01:12;6.65;;;1.63;;
25948;SDS011;13961;51.178;4.448;2023-08-08T14:03:38;3.83;;;1.63;;
25948;SDS011;13961;51.178;4.448;2023-08-08T14:06:04;3.70;;;1.48;;
25948;SDS011;13961;51.178;4.448;2023-08-08T14:08:32;1.60;;;1.30;;
25948;SDS011;13961;51.178;4.448;2023-08-08T14:10:58;2.22;;;1.27;;
25948;SDS011;13961;51.178;4.448;2023-08-08T14:13:24;2.50;;;1.60;;
25948;SDS011;13961;51.178;4.448;2023-08-08T14:15:50;3.47;;;1.90;;
25948;SDS011;13961;51.178;4.448;2023-08-08T14:18:17;2.10;;;1.30;;
25948;SDS011;13961;51.178;4.448;2023-08-08T14:20:43;1.67;;;1.42;;
25948;SDS011;13961;51.178;4.448;2023-08-08T14:23:09;2.20;;;1.38;;
25948;SDS011;13961;51.178;4.448;2023-08-08T14:25:35;3.83;;;2.00;;
25948;SDS011;13961;51.178;4.448;2023-08-08T14:28:00;3.83;;;1.40;;
25948;SDS011;13961;51.178;4.448;2023-08-08T14:30:27;4.60;;;1.52;;
25948;SDS011;13961;51.178;4.448;2023-08-08T14:32:53;3.63;;;1.67;;
25948;SDS011;13961;51.178;4.448;2023-08-08T14:35:20;2.55;;;1.58;;
25948;SDS011;13961;51.178;4.448;2023-08-08T14:37:46;1.73;;;1.23;;
25948;SDS011;13961;51.178;4.448;2023-08-08T14:40:12;2.80;;;1.50;;
25948;SDS011;13961;51.178;4.448;2023-08-08T14:42:37;1.65;;;1.33;;
25948;SDS011;13961;51.178;4.448;2023-08-08T14:45:03;3.20;;;1.63;;
25948;SDS011;13961;51.178;4.448;2023-08-08T14:47:30;3.03;;;1.73;;